sensor_id;sensor_type;location;lat;lon;timestamp;temperature;humidity
2653;DHT22;1336;48.692;9.144;2022-12-05T06:00:39;5.80;97.20
2653;DHT22;1336;48.692;9.144;2022-12-05T06:01:30;5.80;97.20
2653;DHT22;1336;48.692;9.144;2022-12-05T06:02:21;5.80;97.20
2653;DHT22;1336;48.692;9.144;2022-12-05T06:03:13;5.80;97.20
2653;DHT22;1336;48.692;9.144;2022-12-05T06:04:04;5.80;97.20
2653;DHT22;1336;48.692;9.144;2022-12-05T06:04:57;5.90;97.20
2653;DHT22;1336;48.692;9.144;2022-12-05T06:05:55;5.90;97.20
2653;DHT22;1336;48.692;9.144;2022-12-05T06:06:47;5.90;97.20
2653;DHT22;1336;48.692;9.144;2022-12-05T06:07:38;5.90;97.20
2653;DHT22;1336;48.692;9.144;2022-12-05T06:08:30;5.90;97.20
2653;DHT22;1336;48.692;9.144;2022-12-05T06:09:21;5.90;97.20
2653;DHT22;1336;48.692;9.144;2022-12-05T06:10:13;5.90;97.20
2653;DHT22;1336;48.692;9.144;2022-12-05T06:11:04;5.90;97.20
2653;DHT22;1336;48.692;9.144;2022-12-05T06:11:56;5.90;97.20
2653;DHT22;1336;48.692;9.144;2022-12-05T06:12:47;5.80;97.20
2653;DHT22;1336;48.692;9.144;2022-12-05T06:13:39;5.90;97.20
2653;DHT22;1336;48.692;9.144;2022-12-05T06:14:29;5.80;97.20
2653;DHT22;1336;48.692;9.144;2022-12-05T06:15:21;5.80;97.20
2653;DHT22;1336;48.692;9.144;2022-12-05T06:16:15;5.80;97.20
2653;DHT22;1336;48.692;9.144;2022-12-05T06:17:07;5.80;97.20
2653;DHT22;1336;48.692;9.144;2022-12-05T06:17:58;5.80;97.20
2653;DHT22;1336;48.692;9.144;2022-12-05T06:18:51;5.80;97.20
2653;DHT22;1336;48.692;9.144;2022-12-05T06:19:41;5.80;97.20
2653;DHT22;1336;48.692;9.144;2022-12-05T06:20:33;5.80;97.20
2653;DHT22;1336;48.692;9.144;2022-12-05T06:21:24;5.70;97.20
2653;DHT22;1336;48.692;9.144;2022-12-05T06:22:16;5.70;97.20
2653;DHT22;1336;48.692;9.144;2022-12-05T06:23:07;5.70;97.20
2653;DHT22;1336;48.692;9.144;2022-12-05T06:23:58;5.60;97.20
2653;DHT22;1336;48.692;9.144;2022-12-05T06:24:49;5.60;97.20
2653;DHT22;1336;48.692;9.144;2022-12-05T06:25:46;5.60;97.20
2653;DHT22;1336;48.692;9.144;2022-12-05T06:26:37;5.60;97.20
2653;DHT22;1336;48.692;9.144;2022-12-05T06:27:29;5.60;97.20
2653;DHT22;1336;48.692;9.144;2022-12-05T06:28:22;5.70;97.20
2653;DHT22;1336;48.692;9.144;2022-12-05T06:29:14;5.60;97.20
2653;DHT22;1336;48.692;9.144;2022-12-05T06:30:06;5.70;97.20
2653;DHT22;1336;48.692;9.144;2022-12-05T06:30:58;5.70;97.20
2653;DHT22;1336;48.692;9.144;2022-12-05T06:31:50;5.70;97.20
2653;DHT22;1336;48.692;9.144;2022-12-05T06:32:42;5.70;97.20
2653;DHT22;1336;48.692;9.144;2022-12-05T06:33:33;5.70;97.20
2653;DHT22;1336;48.692;9.144;2022-12-05T06:34:24;5.70;97.20
2653;DHT22;1336;48.692;9.144;2022-12-05T06:35:15;5.70;97.20
2653;DHT22;1336;48.692;9.144;2022-12-05T06:36:09;5.70;97.20
2653;DHT22;1336;48.692;9.144;2022-12-05T06:37:00;5.70;97.20
2653;DHT22;1336;48.692;9.144;2022-12-05T06:37:51;5.80;97.20
2653;DHT22;1336;48.692;9.144;2022-12-05T06:38:42;5.80;97.20
2653;DHT22;1336;48.692;9.144;2022-12-05T06:39:34;5.80;97.20
2653;DHT22;1336;48.692;9.144;2022-12-05T06:40:25;5.80;97.20
2653;DHT22;1336;48.692;9.144;2022-12-05T06:41:18;5.80;97.20
2653;DHT22;1336;48.692;9.144;2022-12-05T06:42:09;5.80;97.20
2653;DHT22;1336;48.692;9.144;2022-12-05T06:43:01;5.80;97.20
2653;DHT22;1336;48.692;9.144;2022-12-05T06:43:52;5.80;97.20
2653;DHT22;1336;48.692;9.144;2022-12-05T06:44:44;5.90;97.20
2653;DHT22;1336;48.692;9.144;2022-12-05T06:45:36;5.90;97.20
2653;DHT22;1336;48.692;9.144;2022-12-05T06:46:29;5.90;97.20
2653;DHT22;1336;48.692;9.144;2022-12-05T06:47:21;5.90;97.20
2653;DHT22;1336;48.692;9.144;2022-12-05T06:48:12;5.90;97.20
2653;DHT22;1336;48.692;9.144;2022-12-05T06:49:03;5.90;97.20
2653;DHT22;1336;48.692;9.144;2022-12-05T06:49:55;5.90;97.20
2653;DHT22;1336;48.692;9.144;2022-12-05T06:50:48;6.00;97.20
2653;DHT22;1336;48.692;9.144;2022-12-05T06:51:40;6.00;97.20
2653;DHT22;1336;48.692;9.144;2022-12-05T06:52:30;6.00;97.20
2653;DHT22;1336;48.692;9.144;2022-12-05T06:53:24;6.00;97.20
2653;DHT22;1336;48.692;9.144;2022-12-05T06:54:15;6.00;97.20
2653;DHT22;1336;48.692;9.144;2022-12-05T06:55:07;6.00;97.20
2653;DHT22;1336;48.692;9.144;2022-12-05T06:55:59;6.00;97.20
2653;DHT22;1336;48.692;9.144;2022-12-05T06:56:51;6.00;97.20
2653;DHT22;1336;48.692;9.144;2022-12-05T06:57:42;6.00;97.20
2653;DHT22;1336;48.692;9.144;2022-12-05T06:58:34;6.00;97.20
2653;DHT22;1336;48.692;9.144;2022-12-05T06:59:24;6.00;97.20
2653;DHT22;1336;48.692;9.144;2022-12-05T07:00:16;6.00;97.20
2653;DHT22;1336;48.692;9.144;2022-12-05T07:01:26;6.00;97.20
2653;DHT22;1336;48.692;9.144;2022-12-05T07:02:31;6.00;97.20
2653;DHT22;1336;48.692;9.144;2022-12-05T07:03:23;6.00;97.20
2653;DHT22;1336;48.692;9.144;2022-12-05T07:04:16;6.00;97.20
2653;DHT22;1336;48.692;9.144;2022-12-05T07:05:10;6.00;97.20
2653;DHT22;1336;48.692;9.144;2022-12-05T07:06:02;6.00;97.20
2653;DHT22;1336;48.692;9.144;2022-12-05T07:06:54;6.00;97.20
2653;DHT22;1336;48.692;9.144;2022-12-05T07:07:45;6.00;97.20
2653;DHT22;1336;48.692;9.144;2022-12-05T07:08:37;6.00;97.20
2653;DHT22;1336;48.692;9.144;2022-12-05T07:09:28;6.00;97.20
2653;DHT22;1336;48.692;9.144;2022-12-05T07:10:33;6.00;97.20
2653;DHT22;1336;48.692;9.144;2022-12-05T07:11:25;6.00;97.20
2653;DHT22;1336;48.692;9.144;2022-12-05T07:12:18;6.00;97.20
2653;DHT22;1336;48.692;9.144;2022-12-05T07:13:09;6.00;97.20
2653;DHT22;1336;48.692;9.144;2022-12-05T07:17:06;5.90;97.20
2653;DHT22;1336;48.692;9.144;2022-12-05T07:17:58;5.90;97.20
2653;DHT22;1336;48.692;9.144;2022-12-05T07:18:50;5.90;97.20
2653;DHT22;1336;48.692;9.144;2022-12-05T07:19:41;5.90;97.20
2653;DHT22;1336;48.692;9.144;2022-12-05T07:20:32;5.90;97.20
2653;DHT22;1336;48.692;9.144;2022-12-05T07:21:23;5.90;97.20
2653;DHT22;1336;48.692;9.144;2022-12-05T07:22:15;5.90;97.20
2653;DHT22;1336;48.692;9.144;2022-12-05T07:23:06;5.90;97.20
2653;DHT22;1336;48.692;9.144;2022-12-05T07:23:58;5.90;97.20
2653;DHT22;1336;48.692;9.144;2022-12-05T07:24:50;5.90;97.20
2653;DHT22;1336;48.692;9.144;2022-12-05T07:25:42;5.90;97.20
2653;DHT22;1336;48.692;9.144;2022-12-05T07:26:33;5.90;97.20
2653;DHT22;1336;48.692;9.144;2022-12-05T07:27:25;5.90;97.20
2653;DHT22;1336;48.692;9.144;2022-12-05T07:28:15;6.00;97.20
2653;DHT22;1336;48.692;9.144;2022-12-05T07:29:08;6.00;97.20
2653;DHT22;1336;48.692;9.144;2022-12-05T07:29:59;6.00;97.20
2653;DHT22;1336;48.692;9.144;2022-12-05T07:30:58;6.00;97.20
2653;DHT22;1336;48.692;9.144;2022-12-05T07:31:50;6.00;97.20
2653;DHT22;1336;48.692;9.144;2022-12-05T07:32:43;6.00;97.20
2653;DHT22;1336;48.692;9.144;2022-12-05T07:33:37;6.00;97.20
2653;DHT22;1336;48.692;9.144;2022-12-05T07:34:28;6.10;97.20
2653;DHT22;1336;48.692;9.144;2022-12-05T07:35:19;6.10;97.20
2653;DHT22;1336;48.692;9.144;2022-12-05T07:36:11;6.10;97.20
2653;DHT22;1336;48.692;9.144;2022-12-05T07:37:03;6.10;97.20
2653;DHT22;1336;48.692;9.144;2022-12-05T07:37:54;6.10;97.20
2653;DHT22;1336;48.692;9.144;2022-12-05T07:38:46;6.10;97.20
2653;DHT22;1336;48.692;9.144;2022-12-05T07:39:37;6.20;97.20
2653;DHT22;1336;48.692;9.144;2022-12-05T07:40:28;6.20;97.20
2653;DHT22;1336;48.692;9.144;2022-12-05T07:41:21;6.20;97.20
2653;DHT22;1336;48.692;9.144;2022-12-05T07:42:13;6.20;97.20
2653;DHT22;1336;48.692;9.144;2022-12-05T07:43:04;6.30;97.20
2653;DHT22;1336;48.692;9.144;2022-12-05T07:43:57;6.30;97.20
2653;DHT22;1336;48.692;9.144;2022-12-05T07:44:48;6.30;97.20
2653;DHT22;1336;48.692;9.144;2022-12-05T07:45:39;6.30;97.20
2653;DHT22;1336;48.692;9.144;2022-12-05T07:46:30;6.30;97.20
2653;DHT22;1336;48.692;9.144;2022-12-05T07:47:22;6.30;97.20
2653;DHT22;1336;48.692;9.144;2022-12-05T07:48:13;6.40;97.20
2653;DHT22;1336;48.692;9.144;2022-12-05T07:49:06;6.30;97.20
2653;DHT22;1336;48.692;9.144;2022-12-05T07:49:58;6.40;97.20
2653;DHT22;1336;48.692;9.144;2022-12-05T07:50:49;6.40;97.20
2653;DHT22;1336;48.692;9.144;2022-12-05T07:51:40;6.40;97.20
2653;DHT22;1336;48.692;9.144;2022-12-05T07:52:31;6.40;97.20
2653;DHT22;1336;48.692;9.144;2022-12-05T07:53:23;6.40;97.20
2653;DHT22;1336;48.692;9.144;2022-12-05T07:54:14;6.40;97.20
2653;DHT22;1336;48.692;9.144;2022-12-05T07:55:07;6.40;97.20
2653;DHT22;1336;48.692;9.144;2022-12-05T07:55:58;6.40;97.20
2653;DHT22;1336;48.692;9.144;2022-12-05T07:56:50;6.40;97.20
2653;DHT22;1336;48.692;9.144;2022-12-05T07:57:41;6.40;97.20
2653;DHT22;1336;48.692;9.144;2022-12-05T07:58:34;6.40;97.20
2653;DHT22;1336;48.692;9.144;2022-12-05T07:59:25;6.50;97.20
2653;DHT22;1336;48.692;9.144;2022-12-05T08:00:17;6.50;97.20
2653;DHT22;1336;48.692;9.144;2022-12-05T08:01:10;6.50;97.20
2653;DHT22;1336;48.692;9.144;2022-12-05T08:02:02;6.50;97.20
2653;DHT22;1336;48.692;9.144;2022-12-05T08:02:53;6.50;97.20
2653;DHT22;1336;48.692;9.144;2022-12-05T08:03:45;6.50;97.20
2653;DHT22;1336;48.692;9.144;2022-12-05T08:04:37;6.50;97.20
2653;DHT22;1336;48.692;9.144;2022-12-05T08:05:29;6.50;97.20
2653;DHT22;1336;48.692;9.144;2022-12-05T08:06:21;6.50;97.20
2653;DHT22;1336;48.692;9.144;2022-12-05T08:07:14;6.50;97.20
2653;DHT22;1336;48.692;9.144;2022-12-05T08:08:05;6.50;97.20
2653;DHT22;1336;48.692;9.144;2022-12-05T08:08:57;6.50;97.20
2653;DHT22;1336;48.692;9.144;2022-12-05T08:09:47;6.50;97.20
2653;DHT22;1336;48.692;9.144;2022-12-05T08:10:39;6.50;97.20
2653;DHT22;1336;48.692;9.144;2022-12-05T08:11:31;6.50;97.20
2653;DHT22;1336;48.692;9.144;2022-12-05T08:12:25;6.50;97.20
2653;DHT22;1336;48.692;9.144;2022-12-05T08:13:16;6.50;97.20
2653;DHT22;1336;48.692;9.144;2022-12-05T08:14:08;6.50;97.20
2653;DHT22;1336;48.692;9.144;2022-12-05T08:14:59;6.50;97.20
2653;DHT22;1336;48.692;9.144;2022-12-05T08:15:51;6.50;97.20
2653;DHT22;1336;48.692;9.144;2022-12-05T08:16:41;6.50;97.20
2653;DHT22;1336;48.692;9.144;2022-12-05T08:17:33;6.50;97.20
2653;DHT22;1336;48.692;9.144;2022-12-05T08:18:24;6.50;97.20
2653;DHT22;1336;48.692;9.144;2022-12-05T08:19:15;6.40;97.20
2653;DHT22;1336;48.692;9.144;2022-12-05T08:20:09;6.40;97.20
2653;DHT22;1336;48.692;9.144;2022-12-05T08:21:01;6.40;97.20
2653;DHT22;1336;48.692;9.144;2022-12-05T08:21:53;6.40;97.20
2653;DHT22;1336;48.692;9.144;2022-12-05T08:22:45;6.40;97.20
2653;DHT22;1336;48.692;9.144;2022-12-05T08:23:36;6.50;97.20
2653;DHT22;1336;48.692;9.144;2022-12-05T08:24:28;6.40;97.20
2653;DHT22;1336;48.692;9.144;2022-12-05T08:25:18;6.50;97.20
2653;DHT22;1336;48.692;9.144;2022-12-05T08:26:13;6.40;97.20
2653;DHT22;1336;48.692;9.144;2022-12-05T08:27:04;6.40;97.20
2653;DHT22;1336;48.692;9.144;2022-12-05T08:27:56;6.50;97.20
2653;DHT22;1336;48.692;9.144;2022-12-05T08:28:50;6.40;97.20
2653;DHT22;1336;48.692;9.144;2022-12-05T08:29:42;6.40;97.20
2653;DHT22;1336;48.692;9.144;2022-12-05T08:30:34;6.40;97.20
2653;DHT22;1336;48.692;9.144;2022-12-05T08:31:27;6.40;97.20
2653;DHT22;1336;48.692;9.144;2022-12-05T08:32:18;6.40;97.20
2653;DHT22;1336;48.692;9.144;2022-12-05T08:33:10;6.40;97.20
2653;DHT22;1336;48.692;9.144;2022-12-05T08:34:01;6.40;97.20
2653;DHT22;1336;48.692;9.144;2022-12-05T08:34:53;6.40;97.20
2653;DHT22;1336;48.692;9.144;2022-12-05T08:35:46;6.40;97.20
2653;DHT22;1336;48.692;9.144;2022-12-05T08:36:36;6.40;97.20
2653;DHT22;1336;48.692;9.144;2022-12-05T08:37:28;6.40;97.20
2653;DHT22;1336;48.692;9.144;2022-12-05T08:38:19;6.40;97.20
2653;DHT22;1336;48.692;9.144;2022-12-05T08:39:12;6.40;97.20
2653;DHT22;1336;48.692;9.144;2022-12-05T08:40:06;6.40;97.20
2653;DHT22;1336;48.692;9.144;2022-12-05T08:41:00;6.40;97.20
2653;DHT22;1336;48.692;9.144;2022-12-05T08:41:51;6.30;97.20
2653;DHT22;1336;48.692;9.144;2022-12-05T08:42:43;6.30;97.20
2653;DHT22;1336;48.692;9.144;2022-12-05T08:43:33;6.30;97.20
2653;DHT22;1336;48.692;9.144;2022-12-05T08:44:25;6.30;97.20
2653;DHT22;1336;48.692;9.144;2022-12-05T08:45:16;6.30;97.20
2653;DHT22;1336;48.692;9.144;2022-12-05T08:46:10;6.30;97.20
2653;DHT22;1336;48.692;9.144;2022-12-05T08:47:01;6.30;97.20
2653;DHT22;1336;48.692;9.144;2022-12-05T08:47:52;6.30;97.20
2653;DHT22;1336;48.692;9.144;2022-12-05T08:48:43;6.30;97.20
2653;DHT22;1336;48.692;9.144;2022-12-05T08:49:35;6.30;97.20
2653;DHT22;1336;48.692;9.144;2022-12-05T08:50:25;6.30;97.20
2653;DHT22;1336;48.692;9.144;2022-12-05T08:51:18;6.30;97.20
2653;DHT22;1336;48.692;9.144;2022-12-05T08:52:09;6.30;97.20
2653;DHT22;1336;48.692;9.144;2022-12-05T08:53:01;6.30;97.20
2653;DHT22;1336;48.692;9.144;2022-12-05T08:53:52;6.30;97.20
2653;DHT22;1336;48.692;9.144;2022-12-05T08:54:45;6.30;97.20
2653;DHT22;1336;48.692;9.144;2022-12-05T08:55:37;6.30;97.20
2653;DHT22;1336;48.692;9.144;2022-12-05T08:56:29;6.30;97.20
2653;DHT22;1336;48.692;9.144;2022-12-05T08:57:20;6.30;97.20
2653;DHT22;1336;48.692;9.144;2022-12-05T08:58:12;6.30;97.20
2653;DHT22;1336;48.692;9.144;2022-12-05T08:59:03;6.30;97.20
2653;DHT22;1336;48.692;9.144;2022-12-05T08:59:55;6.30;97.20
2653;DHT22;1336;48.692;9.144;2022-12-05T09:00:45;6.30;97.20
2653;DHT22;1336;48.692;9.144;2022-12-05T09:01:37;6.40;97.20
2653;DHT22;1336;48.692;9.144;2022-12-05T09:02:28;6.30;97.20
2653;DHT22;1336;48.692;9.144;2022-12-05T09:03:20;6.40;97.20
2653;DHT22;1336;48.692;9.144;2022-12-05T09:04:11;6.40;97.20
2653;DHT22;1336;48.692;9.144;2022-12-05T09:05:03;6.40;97.20
2653;DHT22;1336;48.692;9.144;2022-12-05T09:05:53;6.40;97.20
2653;DHT22;1336;48.692;9.144;2022-12-05T09:06:46;6.40;97.20
2653;DHT22;1336;48.692;9.144;2022-12-05T09:07:38;6.40;97.20
2653;DHT22;1336;48.692;9.144;2022-12-05T09:08:29;6.30;97.20
2653;DHT22;1336;48.692;9.144;2022-12-05T09:09:21;6.30;97.20
2653;DHT22;1336;48.692;9.144;2022-12-05T09:10:11;6.30;97.20
2653;DHT22;1336;48.692;9.144;2022-12-05T09:11:04;6.30;97.20
2653;DHT22;1336;48.692;9.144;2022-12-05T09:11:56;6.30;97.20
2653;DHT22;1336;48.692;9.144;2022-12-05T09:12:48;6.30;97.20
2653;DHT22;1336;48.692;9.144;2022-12-05T09:13:40;6.30;97.20
2653;DHT22;1336;48.692;9.144;2022-12-05T09:14:31;6.30;97.20
2653;DHT22;1336;48.692;9.144;2022-12-05T09:15:23;6.30;97.20
2653;DHT22;1336;48.692;9.144;2022-12-05T09:16:16;6.30;97.20
2653;DHT22;1336;48.692;9.144;2022-12-05T09:17:08;6.30;97.20
2653;DHT22;1336;48.692;9.144;2022-12-05T09:17:59;6.30;97.20
2653;DHT22;1336;48.692;9.144;2022-12-05T09:18:51;6.30;97.20
2653;DHT22;1336;48.692;9.144;2022-12-05T09:19:42;6.30;97.20
2653;DHT22;1336;48.692;9.144;2022-12-05T09:20:34;6.30;97.20
2653;DHT22;1336;48.692;9.144;2022-12-05T09:21:26;6.30;97.20
2653;DHT22;1336;48.692;9.144;2022-12-05T09:22:20;6.30;97.20
2653;DHT22;1336;48.692;9.144;2022-12-05T09:23:12;6.30;97.20
2653;DHT22;1336;48.692;9.144;2022-12-05T09:24:02;6.30;97.20
2653;DHT22;1336;48.692;9.144;2022-12-05T09:24:54;6.40;97.20
2653;DHT22;1336;48.692;9.144;2022-12-05T09:25:52;6.40;97.20
2653;DHT22;1336;48.692;9.144;2022-12-05T09:26:44;6.40;97.20
2653;DHT22;1336;48.692;9.144;2022-12-05T09:27:36;6.30;97.20
2653;DHT22;1336;48.692;9.144;2022-12-05T09:28:27;6.30;97.20
2653;DHT22;1336;48.692;9.144;2022-12-05T09:29:18;6.30;97.20
2653;DHT22;1336;48.692;9.144;2022-12-05T09:30:11;6.40;97.20
2653;DHT22;1336;48.692;9.144;2022-12-05T09:31:04;6.30;97.20
2653;DHT22;1336;48.692;9.144;2022-12-05T09:31:55;6.40;97.20
2653;DHT22;1336;48.692;9.144;2022-12-05T09:32:46;6.40;97.20
2653;DHT22;1336;48.692;9.144;2022-12-05T09:33:38;6.40;97.20
2653;DHT22;1336;48.692;9.144;2022-12-05T09:34:29;6.40;97.20
2653;DHT22;1336;48.692;9.144;2022-12-05T09:35:21;6.40;97.20
2653;DHT22;1336;48.692;9.144;2022-12-05T09:36:13;6.40;97.20
2653;DHT22;1336;48.692;9.144;2022-12-05T09:37:05;6.40;97.20
2653;DHT22;1336;48.692;9.144;2022-12-05T09:37:58;6.50;97.20
2653;DHT22;1336;48.692;9.144;2022-12-05T09:38:50;6.50;97.20
2653;DHT22;1336;48.692;9.144;2022-12-05T09:39:42;6.50;97.20
2653;DHT22;1336;48.692;9.144;2022-12-05T09:40:37;6.50;97.20
2653;DHT22;1336;48.692;9.144;2022-12-05T09:41:55;6.60;97.20
2653;DHT22;1336;48.692;9.144;2022-12-05T09:43:02;6.60;97.20
2653;DHT22;1336;48.692;9.144;2022-12-05T09:43:59;6.60;97.20
2653;DHT22;1336;48.692;9.144;2022-12-05T09:45:02;6.70;97.20
2653;DHT22;1336;48.692;9.144;2022-12-05T09:46:00;6.70;97.20
2653;DHT22;1336;48.692;9.144;2022-12-05T09:46:56;6.70;97.20
2653;DHT22;1336;48.692;9.144;2022-12-05T09:47:54;6.70;97.20
2653;DHT22;1336;48.692;9.144;2022-12-05T09:48:47;6.70;97.20
2653;DHT22;1336;48.692;9.144;2022-12-05T09:49:45;6.70;97.20
2653;DHT22;1336;48.692;9.144;2022-12-05T09:50:42;6.70;97.20
2653;DHT22;1336;48.692;9.144;2022-12-05T09:51:34;6.80;97.20
2653;DHT22;1336;48.692;9.144;2022-12-05T09:52:32;6.80;97.20
2653;DHT22;1336;48.692;9.144;2022-12-05T09:53:27;6.80;97.20
2653;DHT22;1336;48.692;9.144;2022-12-05T09:54:21;6.80;97.20
2653;DHT22;1336;48.692;9.144;2022-12-05T09:55:15;6.80;97.20
2653;DHT22;1336;48.692;9.144;2022-12-05T09:56:18;6.80;97.20
2653;DHT22;1336;48.692;9.144;2022-12-05T09:57:12;6.80;97.20
2653;DHT22;1336;48.692;9.144;2022-12-05T09:58:04;6.80;97.20
2653;DHT22;1336;48.692;9.144;2022-12-05T09:59:02;6.80;97.20
2653;DHT22;1336;48.692;9.144;2022-12-05T09:59:55;6.80;97.20
2653;DHT22;1336;48.692;9.144;2022-12-05T10:00:46;6.80;97.20
2653;DHT22;1336;48.692;9.144;2022-12-05T10:01:40;6.80;97.20
2653;DHT22;1336;48.692;9.144;2022-12-05T10:02:43;6.80;97.20
2653;DHT22;1336;48.692;9.144;2022-12-05T10:03:40;6.80;97.20
2653;DHT22;1336;48.692;9.144;2022-12-05T10:04:47;6.80;97.20
2653;DHT22;1336;48.692;9.144;2022-12-05T10:05:50;6.90;97.20
2653;DHT22;1336;48.692;9.144;2022-12-05T10:06:47;6.90;97.20
2653;DHT22;1336;48.692;9.144;2022-12-05T10:07:45;6.90;97.20
2653;DHT22;1336;48.692;9.144;2022-12-05T10:08:54;6.90;97.20
2653;DHT22;1336;48.692;9.144;2022-12-05T10:09:55;6.80;97.20
2653;DHT22;1336;48.692;9.144;2022-12-05T10:10:58;6.80;97.20
2653;DHT22;1336;48.692;9.144;2022-12-05T10:11:57;6.80;97.20
2653;DHT22;1336;48.692;9.144;2022-12-05T10:13:14;6.90;97.20
2653;DHT22;1336;48.692;9.144;2022-12-05T10:14:10;6.90;97.20
2653;DHT22;1336;48.692;9.144;2022-12-05T10:15:10;6.90;97.20
2653;DHT22;1336;48.692;9.144;2022-12-05T10:16:05;6.90;97.20
2653;DHT22;1336;48.692;9.144;2022-12-05T10:17:03;6.90;97.20
2653;DHT22;1336;48.692;9.144;2022-12-05T10:17:58;6.90;97.20
2653;DHT22;1336;48.692;9.144;2022-12-05T10:18:56;7.00;97.20
2653;DHT22;1336;48.692;9.144;2022-12-05T10:19:52;7.00;97.20
2653;DHT22;1336;48.692;9.144;2022-12-05T10:20:49;7.00;97.20
2653;DHT22;1336;48.692;9.144;2022-12-05T10:21:48;7.00;97.20
2653;DHT22;1336;48.692;9.144;2022-12-05T10:22:44;7.00;97.20
2653;DHT22;1336;48.692;9.144;2022-12-05T10:23:43;7.00;97.20
2653;DHT22;1336;48.692;9.144;2022-12-05T10:24:43;6.90;97.20
2653;DHT22;1336;48.692;9.144;2022-12-05T10:25:36;7.00;97.20
2653;DHT22;1336;48.692;9.144;2022-12-05T10:26:32;7.00;97.20
2653;DHT22;1336;48.692;9.144;2022-12-05T10:27:31;7.00;97.20
2653;DHT22;1336;48.692;9.144;2022-12-05T10:28:29;7.00;97.20
2653;DHT22;1336;48.692;9.144;2022-12-05T10:29:27;7.10;97.20
2653;DHT22;1336;48.692;9.144;2022-12-05T10:30:21;7.10;97.20
2653;DHT22;1336;48.692;9.144;2022-12-05T10:31:15;7.10;97.20
2653;DHT22;1336;48.692;9.144;2022-12-05T10:32:12;7.10;97.20
2653;DHT22;1336;48.692;9.144;2022-12-05T10:33:13;7.10;97.20
2653;DHT22;1336;48.692;9.144;2022-12-05T10:34:11;7.10;97.20
2653;DHT22;1336;48.692;9.144;2022-12-05T10:35:14;7.10;97.20
2653;DHT22;1336;48.692;9.144;2022-12-05T10:36:09;7.10;97.20
2653;DHT22;1336;48.692;9.144;2022-12-05T10:37:08;7.10;97.20
2653;DHT22;1336;48.692;9.144;2022-12-05T10:38:04;7.10;97.20
2653;DHT22;1336;48.692;9.144;2022-12-05T10:38:58;7.10;97.20
2653;DHT22;1336;48.692;9.144;2022-12-05T10:39:50;7.10;97.20
2653;DHT22;1336;48.692;9.144;2022-12-05T10:40:44;7.10;97.20
2653;DHT22;1336;48.692;9.144;2022-12-05T10:41:37;7.10;97.20
2653;DHT22;1336;48.692;9.144;2022-12-05T10:42:30;7.10;97.20
2653;DHT22;1336;48.692;9.144;2022-12-05T10:43:25;7.10;97.20
2653;DHT22;1336;48.692;9.144;2022-12-05T10:44:16;7.10;97.20
2653;DHT22;1336;48.692;9.144;2022-12-05T10:45:14;7.10;97.20
2653;DHT22;1336;48.692;9.144;2022-12-05T10:46:05;7.10;97.20
2653;DHT22;1336;48.692;9.144;2022-12-05T10:46:57;7.10;97.20
2653;DHT22;1336;48.692;9.144;2022-12-05T10:47:52;7.10;97.20
2653;DHT22;1336;48.692;9.144;2022-12-05T10:48:44;7.10;97.20
2653;DHT22;1336;48.692;9.144;2022-12-05T10:49:35;7.10;97.20
2653;DHT22;1336;48.692;9.144;2022-12-05T10:50:31;7.10;97.20
2653;DHT22;1336;48.692;9.144;2022-12-05T10:51:26;7.10;97.20
2653;DHT22;1336;48.692;9.144;2022-12-05T10:52:18;7.10;97.20
2653;DHT22;1336;48.692;9.144;2022-12-05T10:53:14;7.10;97.20
2653;DHT22;1336;48.692;9.144;2022-12-05T10:54:16;7.10;97.20
2653;DHT22;1336;48.692;9.144;2022-12-05T10:55:13;7.10;97.20
2653;DHT22;1336;48.692;9.144;2022-12-05T10:56:36;7.10;97.20
2653;DHT22;1336;48.692;9.144;2022-12-05T10:57:28;7.20;97.20
2653;DHT22;1336;48.692;9.144;2022-12-05T10:58:24;7.20;97.20
2653;DHT22;1336;48.692;9.144;2022-12-05T10:59:16;7.20;97.20
2653;DHT22;1336;48.692;9.144;2022-12-05T11:00:11;7.20;97.20
2653;DHT22;1336;48.692;9.144;2022-12-05T11:01:07;7.20;97.20
2653;DHT22;1336;48.692;9.144;2022-12-05T11:01:59;7.20;97.20
2653;DHT22;1336;48.692;9.144;2022-12-05T11:02:50;7.20;97.20
2653;DHT22;1336;48.692;9.144;2022-12-05T11:03:42;7.30;97.20
2653;DHT22;1336;48.692;9.144;2022-12-05T11:04:42;7.30;97.20
2653;DHT22;1336;48.692;9.144;2022-12-05T11:05:34;7.30;97.20
2653;DHT22;1336;48.692;9.144;2022-12-05T11:06:28;7.30;97.20
2653;DHT22;1336;48.692;9.144;2022-12-05T11:07:28;7.30;97.20
2653;DHT22;1336;48.692;9.144;2022-12-05T11:08:21;7.30;97.20
2653;DHT22;1336;48.692;9.144;2022-12-05T11:09:18;7.30;97.20
2653;DHT22;1336;48.692;9.144;2022-12-05T11:10:19;7.30;97.20
2653;DHT22;1336;48.692;9.144;2022-12-05T11:11:18;7.20;97.20
2653;DHT22;1336;48.692;9.144;2022-12-05T11:12:18;7.20;97.20
2653;DHT22;1336;48.692;9.144;2022-12-05T11:13:14;7.30;97.20
2653;DHT22;1336;48.692;9.144;2022-12-05T11:14:20;7.30;97.20
2653;DHT22;1336;48.692;9.144;2022-12-05T11:15:20;7.30;97.20
2653;DHT22;1336;48.692;9.144;2022-12-05T11:16:22;7.30;97.20
2653;DHT22;1336;48.692;9.144;2022-12-05T11:17:23;7.30;97.20
2653;DHT22;1336;48.692;9.144;2022-12-05T11:18:26;7.30;97.20
2653;DHT22;1336;48.692;9.144;2022-12-05T11:19:25;7.30;97.20
2653;DHT22;1336;48.692;9.144;2022-12-05T11:20:32;7.40;97.20
2653;DHT22;1336;48.692;9.144;2022-12-05T11:21:25;7.40;97.20
2653;DHT22;1336;48.692;9.144;2022-12-05T11:22:17;7.50;97.20
2653;DHT22;1336;48.692;9.144;2022-12-05T11:23:32;7.50;97.20
2653;DHT22;1336;48.692;9.144;2022-12-05T11:24:27;7.60;97.20
2653;DHT22;1336;48.692;9.144;2022-12-05T11:25:24;7.60;97.20
2653;DHT22;1336;48.692;9.144;2022-12-05T11:26:18;7.70;97.20
2653;DHT22;1336;48.692;9.144;2022-12-05T11:27:20;7.70;97.20
2653;DHT22;1336;48.692;9.144;2022-12-05T11:28:31;7.80;97.20
2653;DHT22;1336;48.692;9.144;2022-12-05T11:29:31;8.00;97.20
2653;DHT22;1336;48.692;9.144;2022-12-05T11:30:25;8.10;97.20
2653;DHT22;1336;48.692;9.144;2022-12-05T11:31:25;8.20;97.20
2653;DHT22;1336;48.692;9.144;2022-12-05T11:32:19;8.30;97.20
2653;DHT22;1336;48.692;9.144;2022-12-05T11:33:15;8.30;97.20
2653;DHT22;1336;48.692;9.144;2022-12-05T11:34:15;8.40;97.20
2653;DHT22;1336;48.692;9.144;2022-12-05T11:35:16;8.50;97.20
2653;DHT22;1336;48.692;9.144;2022-12-05T11:36:13;8.50;97.20
2653;DHT22;1336;48.692;9.144;2022-12-05T11:37:11;8.50;97.20
2653;DHT22;1336;48.692;9.144;2022-12-05T11:38:04;8.60;97.20
2653;DHT22;1336;48.692;9.144;2022-12-05T11:38:57;8.60;97.20
2653;DHT22;1336;48.692;9.144;2022-12-05T11:39:49;8.60;97.20
2653;DHT22;1336;48.692;9.144;2022-12-05T11:40:48;8.60;97.20
2653;DHT22;1336;48.692;9.144;2022-12-05T11:41:56;8.60;97.20
2653;DHT22;1336;48.692;9.144;2022-12-05T11:43:05;8.70;97.20
2653;DHT22;1336;48.692;9.144;2022-12-05T11:44:13;8.80;97.20
2653;DHT22;1336;48.692;9.144;2022-12-05T11:45:30;8.90;97.20
2653;DHT22;1336;48.692;9.144;2022-12-05T11:46:29;8.90;97.20
2653;DHT22;1336;48.692;9.144;2022-12-05T11:47:35;9.00;97.20
2653;DHT22;1336;48.692;9.144;2022-12-05T11:48:40;9.00;97.20
2653;DHT22;1336;48.692;9.144;2022-12-05T11:49:54;9.00;97.20
2653;DHT22;1336;48.692;9.144;2022-12-05T11:51:05;9.00;97.20
2653;DHT22;1336;48.692;9.144;2022-12-05T11:52:04;9.00;97.20
2653;DHT22;1336;48.692;9.144;2022-12-05T11:53:10;9.00;97.20
2653;DHT22;1336;48.692;9.144;2022-12-05T11:54:26;9.00;97.20
2653;DHT22;1336;48.692;9.144;2022-12-05T11:55:24;8.90;97.20
2653;DHT22;1336;48.692;9.144;2022-12-05T11:56:22;8.80;97.20
2653;DHT22;1336;48.692;9.144;2022-12-05T11:57:24;8.80;97.20
2653;DHT22;1336;48.692;9.144;2022-12-05T11:58:40;8.70;97.20
2653;DHT22;1336;48.692;9.144;2022-12-05T11:59:51;8.70;97.20
2653;DHT22;1336;48.692;9.144;2022-12-05T12:00:59;8.60;97.20
2653;DHT22;1336;48.692;9.144;2022-12-05T12:01:59;8.50;97.20
2653;DHT22;1336;48.692;9.144;2022-12-05T12:04:33;8.40;97.20
2653;DHT22;1336;48.692;9.144;2022-12-05T12:05:34;8.40;97.20
2653;DHT22;1336;48.692;9.144;2022-12-05T12:06:30;8.30;97.20